Time,TemperatureF,DewpointF,PressureIn,WindDirection,WindDirectionDegrees,WindSpeedMPH,WindSpeedGustMPH,Humidity,HourlyPrecipIn,Conditions,Clouds,dailyrainin,SoftwareType,DateUTC
2013-01-10 00:12:00,23.2,16.0,30.05,SSW,201,1.0,3.0,75,0.00,,,0.00,weatherlink.com 1.10,2013-01-10 07:12:00,
2013-01-10 00:27:00,23.6,16.0,30.04,SW,218,2.0,3.0,73,0.00,,,0.00,weatherlink.com 1.10,2013-01-10 07:27:00,
2013-01-10 00:42:00,24.1,16.0,30.04,SSW,193,2.0,3.0,70,0.00,,,0.00,weatherlink.com 1.10,2013-01-10 07:42:00,
2013-01-10 00:57:00,23.2,16.0,30.02,SSE,153,0.0,3.0,73,0.00,,,0.00,weatherlink.com 1.10,2013-01-10 07:57:00,
2013-01-10 01:12:00,23.2,16.0,30.02,SE,124,2.0,3.0,73,0.00,,,0.00,weatherlink.com 1.10,2013-01-10 08:12:00,
2013-01-10 01:27:00,24.1,15.0,30.01,SE,131,0.0,0.0,68,0.00,,,0.00,weatherlink.com 1.10,2013-01-10 08:27:00,
2013-01-10 01:42:00,23.6,15.0,30.01,WNW,294,0.0,3.0,69,0.00,,,0.00,weatherlink.com 1.10,2013-01-10 08:42:00,
2013-01-10 01:57:00,23.7,15.0,30.00,South,188,2.0,3.0,68,0.00,,,0.00,weatherlink.com 1.10,2013-01-10 08:57:00,
2013-01-10 02:12:00,23.2,15.0,30.00,WSW,245,1.0,4.0,70,0.00,,,0.00,weatherlink.com 1.10,2013-01-10 09:12:00,
2013-01-10 02:27:00,22.9,14.0,30.00,WSW,256,3.0,4.0,68,0.00,,,0.00,weatherlink.com 1.10,2013-01-10 09:27:00,
2013-01-10 02:42:00,23.9,14.0,29.99,SSE,167,2.0,3.0,66,0.00,,,0.00,weatherlink.com 1.10,2013-01-10 09:42:00,
2013-01-10 02:57:00,23.2,13.0,29.98,SSW,207,2.0,2.0,66,0.00,,,0.00,weatherlink.com 1.10,2013-01-10 09:57:00,
2013-01-10 03:13:00,22.1,13.0,29.97,SSW,194,0.0,1.0,67,0.00,,,0.00,weatherlink.com 1.10,2013-01-10 10:13:00,
2013-01-10 03:28:00,20.4,12.0,29.96,SSW,207,1.0,2.0,69,0.00,,,0.00,weatherlink.com 1.10,2013-01-10 10:28:00,
2013-01-10 03:43:00,20.5,14.0,29.96,SSW,201,0.0,3.0,75,0.00,,,0.00,weatherlink.com 1.10,2013-01-10 10:43:00,
2013-01-10 03:58:00,19.4,14.0,29.95,SSW,208,2.0,2.0,78,0.00,,,0.00,weatherlink.com 1.10,2013-01-10 10:58:00,
2013-01-10 04:13:00,19.7,13.0,29.94,SSW,197,2.0,4.0,75,0.00,,,0.00,weatherlink.com 1.10,2013-01-10 11:13:00,
2013-01-10 04:28:00,19.2,13.0,29.93,SSE,159,2.0,4.0,76,0.00,,,0.00,weatherlink.com 1.10,2013-01-10 11:28:00,
2013-01-10 04:43:00,20.2,13.0,29.92,SSE,155,3.0,4.0,73,0.00,,,0.00,weatherlink.com 1.10,2013-01-10 11:43:00,
2013-01-10 04:58:00,20.6,13.0,29.92,West,262,0.0,2.0,71,0.00,,,0.00,weatherlink.com 1.10,2013-01-10 11:58:00,
2013-01-10 05:13:00,19.5,12.0,29.91,SSW,207,2.0,2.0,73,0.00,,,0.00,weatherlink.com 1.10,2013-01-10 12:13:00,
2013-01-10 05:28:00,18.9,13.0,29.91,SSW,203,1.0,4.0,77,0.00,,,0.00,weatherlink.com 1.10,2013-01-10 12:28:00,
2013-01-10 05:43:00,19.2,13.0,29.91,WSW,240,0.0,1.0,75,0.00,,,0.00,weatherlink.com 1.10,2013-01-10 12:43:00,
2013-01-10 05:58:00,19.2,12.0,29.90,South,185,0.0,3.0,73,0.00,,,0.00,weatherlink.com 1.10,2013-01-10 12:58:00,
2013-01-10 06:13:00,19.2,12.0,29.90,SSW,203,3.0,3.0,73,0.00,,,0.00,weatherlink.com 1.10,2013-01-10 13:13:00,
2013-01-10 06:28:00,19.6,12.0,29.90,SW,214,3.0,4.0,72,0.00,,,0.00,weatherlink.com 1.10,2013-01-10 13:28:00,
2013-01-10 06:43:00,18.9,11.0,29.89,SSW,207,0.0,1.0,71,0.00,,,0.00,weatherlink.com 1.10,2013-01-10 13:43:00,
2013-01-10 06:58:00,18.3,12.0,29.88,SSE,150,2.0,4.0,77,0.00,,,0.00,weatherlink.com 1.10,2013-01-10 13:58:00,
2013-01-10 07:13:00,19.1,12.0,29.87,ESE,117,1.0,3.0,74,0.00,,,0.00,weatherlink.com 1.10,2013-01-10 14:13:00,
2013-01-10 07:28:00,17.7,11.0,29.87,NW,305,0.0,4.0,76,0.00,,,0.00,weatherlink.com 1.10,2013-01-10 14:28:00,
2013-01-10 07:43:00,18.0,12.0,29.87,South,180,2.0,3.0,78,0.00,,,0.00,weatherlink.com 1.10,2013-01-10 14:43:00,
2013-01-10 07:58:00,20.4,15.0,29.87,SW,214,1.0,4.0,78,0.00,,,0.00,weatherlink.com 1.10,2013-01-10 14:58:00,
2013-01-10 08:13:00,22.4,16.0,29.86,WSW,238,2.0,3.0,75,0.00,,,0.00,weatherlink.com 1.10,2013-01-10 15:13:00,
2013-01-10 08:28:00,24.1,16.0,29.85,SSW,197,0.0,3.0,72,0.00,,,0.00,weatherlink.com 1.10,2013-01-10 15:28:00,
2013-01-10 08:43:00,26.3,17.0,29.84,WSW,243,1.0,2.0,69,0.00,,,0.00,weatherlink.com 1.10,2013-01-10 15:43:00,
2013-01-10 08:58:00,28.5,19.0,29.83,SE,139,1.0,3.0,67,0.00,,,0.00,weatherlink.com 1.10,2013-01-10 15:58:00,
2013-01-10 09:13:00,29.8,19.0,29.82,SE,134,0.0,1.0,65,0.00,,,0.00,weatherlink.com 1.10,2013-01-10 16:13:00,
2013-01-10 09:29:00,30.8,19.0,29.82,SE,134,1.0,1.0,62,0.00,,,0.00,weatherlink.com 1.10,2013-01-10 16:29:00,
2013-01-10 09:44:00,32.1,20.0,29.81,NE,49,0.0,1.0,61,0.00,,,0.00,weatherlink.com 1.10,2013-01-10 16:44:00,
2013-01-10 09:59:00,33.0,20.0,29.81,SE,145,0.0,1.0,60,0.00,,,0.00,weatherlink.com 1.10,2013-01-10 16:59:00,
2013-01-10 10:14:00,33.6,21.0,29.79,ENE,63,0.0,2.0,60,0.00,,,0.00,weatherlink.com 1.10,2013-01-10 17:14:00,
2013-01-10 10:29:00,34.3,21.0,29.78,ENE,63,0.0,2.0,59,0.00,,,0.00,weatherlink.com 1.10,2013-01-10 17:29:00,
2013-01-10 10:44:00,35.1,21.0,29.77,NE,38,2.0,3.0,56,0.00,,,0.00,weatherlink.com 1.10,2013-01-10 17:44:00,
2013-01-10 10:59:00,35.6,20.0,29.76,NE,53,2.0,3.0,53,0.00,,,0.00,weatherlink.com 1.10,2013-01-10 17:59:00,
2013-01-10 11:14:00,35.9,20.0,29.75,ENE,58,3.0,5.0,52,0.00,,,0.00,weatherlink.com 1.10,2013-01-10 18:14:00,
2013-01-10 11:29:00,36.2,20.0,29.73,NE,53,2.0,3.0,52,0.00,,,0.00,weatherlink.com 1.10,2013-01-10 18:29:00,
2013-01-10 11:44:00,36.5,20.0,29.72,ENE,61,2.0,3.0,51,0.00,,,0.00,weatherlink.com 1.10,2013-01-10 18:44:00,
2013-01-10 11:59:00,37.1,20.0,29.70,NE,49,1.0,3.0,50,0.00,,,0.00,weatherlink.com 1.10,2013-01-10 18:59:00,
2013-01-10 12:14:00,37.5,20.0,29.70,NE,44,0.0,2.0,49,0.00,,,0.00,weatherlink.com 1.10,2013-01-10 19:14:00,
2013-01-10 12:29:00,37.3,20.0,29.69,NE,43,3.0,4.0,50,0.00,,,0.00,weatherlink.com 1.10,2013-01-10 19:29:00,
2013-01-10 12:44:00,37.3,20.0,29.69,ENE,65,0.0,2.0,50,0.00,,,0.00,weatherlink.com 1.10,2013-01-10 19:44:00,
2013-01-10 12:59:00,37.7,20.0,29.68,NE,40,2.0,2.0,49,0.00,,,0.00,weatherlink.com 1.10,2013-01-10 19:59:00,
2013-01-10 13:29:00,38.8,19.0,29.67,NE,46,0.0,3.0,46,0.00,,,0.00,weatherlink.com 1.10,2013-01-10 20:29:00,
2013-01-10 13:44:00,39.5,20.0,29.67,ENE,57,0.0,3.0,46,0.00,,,0.00,weatherlink.com 1.10,2013-01-10 20:44:00,
2013-01-10 13:59:00,39.6,20.0,29.67,NE,53,0.0,2.0,46,0.00,,,0.00,weatherlink.com 1.10,2013-01-10 20:59:00,
2013-01-10 14:14:00,40.1,20.0,29.66,ESE,115,0.0,1.0,44,0.00,,,0.00,weatherlink.com 1.10,2013-01-10 21:14:00,
2013-01-10 14:44:00,40.3,20.0,29.66,West,260,1.0,3.0,44,0.00,,,0.00,weatherlink.com 1.10,2013-01-10 21:44:00,
2013-01-10 15:15:00,40.9,20.0,29.65,NNE,20,0.0,1.0,43,0.00,,,0.00,weatherlink.com 1.10,2013-01-10 22:15:00,
2013-01-10 15:30:00,40.8,20.0,29.64,NE,53,1.0,3.0,43,0.00,,,0.00,weatherlink.com 1.10,2013-01-10 22:30:00,
2013-01-10 16:00:00,40.3,20.0,29.64,NE,49,0.0,0.0,44,0.00,,,0.00,weatherlink.com 1.10,2013-01-10 23:00:00,
2013-01-10 16:15:00,39.7,20.0,29.64,NE,50,0.0,0.0,45,0.00,,,0.00,weatherlink.com 1.10,2013-01-10 23:15:00,
2013-01-10 16:30:00,37.2,18.0,29.63,SE,124,1.0,2.0,47,0.00,,,0.00,weatherlink.com 1.10,2013-01-10 23:30:00,
2013-01-10 16:45:00,35.1,21.0,29.63,WSW,258,3.0,4.0,58,0.00,,,0.00,weatherlink.com 1.10,2013-01-10 23:45:00,
2013-01-10 17:00:00,33.6,20.0,29.63,North,354,0.0,3.0,59,0.00,,,0.00,weatherlink.com 1.10,2013-01-11 00:00:00,
2013-01-10 17:15:00,32.8,20.0,29.63,SSE,153,0.0,2.0,60,0.00,,,0.00,weatherlink.com 1.10,2013-01-11 00:15:00,
2013-01-10 17:30:00,30.4,20.0,29.63,SSW,207,0.0,1.0,65,0.00,,,0.00,weatherlink.com 1.10,2013-01-11 00:30:00,
2013-01-10 17:45:00,28.7,20.0,29.62,SSW,198,0.0,3.0,69,0.00,,,0.00,weatherlink.com 1.10,2013-01-11 00:45:00,
2013-01-10 18:00:00,29.0,20.0,29.62,South,188,0.0,2.0,70,0.00,,,0.00,weatherlink.com 1.10,2013-01-11 01:00:00,
2013-01-10 18:15:00,27.8,20.0,29.63,South,185,1.0,3.0,71,0.00,,,0.00,weatherlink.com 1.10,2013-01-11 01:15:00,
2013-01-10 18:30:00,27.3,20.0,29.63,SSW,207,2.0,2.0,74,0.00,,,0.00,weatherlink.com 1.10,2013-01-11 01:30:00,
2013-01-10 18:45:00,27.9,19.0,29.63,West,262,0.0,2.0,70,0.00,,,0.00,weatherlink.com 1.10,2013-01-11 01:45:00,
2013-01-10 19:00:00,27.7,19.0,29.62,SSE,152,2.0,4.0,70,0.00,,,0.00,weatherlink.com 1.10,2013-01-11 02:00:00,
2013-01-10 19:15:00,27.8,18.0,29.62,SW,235,0.0,5.0,66,0.00,,,0.00,weatherlink.com 1.10,2013-01-11 02:15:00,
2013-01-10 19:30:00,28.2,18.0,29.61,ESE,108,0.0,1.0,66,0.00,,,0.00,weatherlink.com 1.10,2013-01-11 02:30:00,
2013-01-10 19:45:00,28.6,19.0,29.61,SSW,201,0.0,4.0,67,0.00,,,0.00,weatherlink.com 1.10,2013-01-11 02:45:00,
2013-01-10 20:00:00,28.6,17.0,29.61,SSW,198,2.0,5.0,63,0.00,,,0.00,weatherlink.com 1.10,2013-01-11 03:00:00,
2013-01-10 20:15:00,28.3,17.0,29.61,NNE,13,0.0,2.0,62,0.00,,,0.00,weatherlink.com 1.10,2013-01-11 03:15:00,
2013-01-10 20:30:00,27.5,17.0,29.60,WNW,301,1.0,2.0,64,0.00,,,0.00,weatherlink.com 1.10,2013-01-11 03:30:00,
2013-01-10 20:45:00,27.5,17.0,29.59,South,190,0.0,0.0,66,0.00,,,0.00,weatherlink.com 1.10,2013-01-11 03:45:00,
2013-01-10 21:00:00,27.9,19.0,29.59,SSW,197,2.0,-999.0,68,-99.99,,,0.00,weatherlink.com 1.10,2013-01-11 04:00:00,
2013-01-10 21:15:00,26.9,17.0,29.59,SSW,207,2.0,6.0,67,0.00,,,0.00,weatherlink.com 1.10,2013-01-11 04:15:00,
2013-01-10 21:30:00,26.5,17.0,29.58,WNW,301,1.0,5.0,68,0.00,,,0.00,weatherlink.com 1.10,2013-01-11 04:30:00,
2013-01-10 21:45:00,26.8,16.0,29.58,West,280,0.0,2.0,65,0.00,,,0.00,weatherlink.com 1.10,2013-01-11 04:45:00,
2013-01-10 22:00:00,28.6,15.0,29.57,SW,229,1.0,2.0,57,0.00,,,0.00,weatherlink.com 1.10,2013-01-11 05:00:00,
2013-01-10 22:15:00,28.5,14.0,29.55,ESE,120,3.0,3.0,56,0.00,,,0.00,weatherlink.com 1.10,2013-01-11 05:15:00,
2013-01-10 22:30:00,27.0,15.0,29.55,SW,214,0.0,0.0,60,0.00,,,0.00,weatherlink.com 1.10,2013-01-11 05:30:00,
2013-01-10 22:45:00,37.2,15.0,29.55,SW,217,3.0,7.0,40,0.00,,,0.00,weatherlink.com 1.10,2013-01-11 05:45:00,
2013-01-10 23:00:00,40.6,13.0,29.54,South,179,5.0,8.0,33,0.00,,,0.00,weatherlink.com 1.10,2013-01-11 06:00:00,
2013-01-10 23:15:00,42.7,14.0,29.54,South,183,8.0,12.0,31,0.00,,,0.00,weatherlink.com 1.10,2013-01-11 06:15:00,
2013-01-10 23:30:00,42.5,14.0,29.55,SSW,203,5.0,10.0,32,0.00,,,0.00,weatherlink.com 1.10,2013-01-11 06:30:00,
2013-01-10 23:45:00,43.0,16.0,29.54,SSW,205,7.0,11.0,34,0.00,,,0.00,weatherlink.com 1.10,2013-01-11 06:45:00,